Time;durP1;ratioP1;P1;durP2;ratioP2;P2;SDS_P1;SDS_P2;PMS_P1;PMS_P2;Temp;Humidity;BMP_temperature;BMP_pressure;BME280_temperature;BME280_humidity;BME280_pressure;Samples;Min_cycle;Max_cycle;Signal;HPM_P1;HPM_P2
2021/09/16 00:01:49;;;;;;;13.43;11.03;;;16.10;99.90;;;;;;4907525;29;20925;-78
2021/09/16 00:04:16;;;;;;;12.77;11.53;;;16.10;99.90;;;;;;4900757;29;20465;-81
2021/09/16 00:06:44;;;;;;;9.70;8.60;;;16.10;99.90;;;;;;4900653;29;20470;-82
2021/09/16 00:09:11;;;;;;;16.43;14.87;;;16.10;99.90;;;;;;4903993;29;20448;-70
2021/09/16 00:11:39;;;;;;;14.70;13.13;;;16.40;99.90;;;;;;4902929;29;20547;-73
2021/09/16 00:14:06;;;;;;;9.87;8.30;;;16.20;99.90;;;;;;4907034;29;20474;-80
2021/09/16 00:16:33;;;;;;;13.10;11.83;;;16.30;99.90;;;;;;4909026;29;20961;-76
2021/09/16 00:19:01;;;;;;;21.80;12.73;;;16.20;99.90;;;;;;4906250;29;20454;-79
2021/09/16 00:21:28;;;;;;;14.98;9.93;;;16.20;99.90;;;;;;4903472;29;20439;-83
2021/09/16 00:23:55;;;;;;;13.23;9.80;;;16.10;99.90;;;;;;4907960;29;20195;-79
2021/09/16 00:26:23;;;;;;;22.90;21.27;;;16.00;99.90;;;;;;4910501;29;20436;-82
2021/09/16 00:28:50;;;;;;;9.30;8.20;;;16.00;99.90;;;;;;4901550;29;20425;-81
2021/09/16 00:31:18;;;;;;;27.10;13.30;;;16.10;99.90;;;;;;4907027;29;20438;-82
2021/09/16 00:33:46;;;;;;;11.23;10.20;;;16.10;99.90;;;;;;4901496;29;20961;-82
2021/09/16 00:36:13;;;;;;;9.03;6.87;;;16.00;99.90;;;;;;4906074;29;20427;-82
2021/09/16 00:38:40;;;;;;;12.73;7.90;;;16.20;99.90;;;;;;4907503;29;21014;-82
2021/09/16 00:41:08;;;;;;;10.03;9.00;;;16.70;99.90;;;;;;4908772;29;20841;-83
2021/09/16 00:43:35;;;;;;;9.90;6.93;;;17.00;99.90;;;;;;4901671;29;20426;-76
2021/09/16 00:46:06;;;;;;;17.23;14.70;;;17.10;99.90;;;;;;4901384;29;20416;-79
2021/09/16 00:48:35;;;;;;;14.60;6.30;;;17.20;99.90;;;;;;4902716;29;20514;-83
2021/09/16 00:51:02;;;;;;;14.77;9.63;;;17.20;99.90;;;;;;4916044;29;20786;-82
2021/09/16 00:53:31;;;;;;;14.30;11.37;;;17.30;99.90;;;;;;4904025;29;20478;-77
2021/09/16 00:56:00;;;;;;;14.90;10.60;;;17.40;99.90;;;;;;4901092;29;20430;-83
2021/09/16 00:58:30;;;;;;;11.70;10.57;;;17.50;99.90;;;;;;4897439;29;20440;-82
2021/09/16 01:00:58;;;;;;;8.13;7.30;;;17.40;99.90;;;;;;4902876;29;20439;-83
2021/09/16 01:03:28;;;;;;;20.23;17.93;;;17.30;99.90;;;;;;4910897;29;20433;-71
2021/09/16 01:05:55;;;;;;;13.87;9.17;;;17.50;99.90;;;;;;4908963;29;20421;-78
2021/09/16 01:08:23;;;;;;;9.90;8.63;;;17.60;99.90;;;;;;4901080;29;20432;-85
2021/09/16 01:10:50;;;;;;;10.97;6.70;;;17.40;99.90;;;;;;4905706;29;20976;-84
2021/09/16 01:13:18;;;;;;;9.23;7.47;;;17.80;99.90;;;;;;4902643;29;20986;-83
2021/09/16 01:15:46;;;;;;;10.00;8.20;;;17.90;99.90;;;;;;4900586;29;20426;-68
2021/09/16 01:18:14;;;;;;;10.40;7.00;;;18.10;99.90;;;;;;4898334;29;20458;-68
2021/09/16 01:20:41;;;;;;;7.80;7.00;;;18.30;99.90;;;;;;4899632;29;20428;-81
2021/09/16 01:23:09;;;;;;;18.57;16.93;;;18.60;99.90;;;;;;4898496;29;20471;-82
2021/09/16 01:25:38;;;;;;;11.33;10.33;;;18.70;99.90;;;;;;4901087;29;20439;-84
2021/09/16 01:28:05;;;;;;;7.70;6.83;;;18.50;99.90;;;;;;4904142;29;20438;-79
2021/09/16 01:30:34;;;;;;;13.40;12.33;;;18.70;99.90;;;;;;4896617;29;20443;-82
2021/09/16 01:33:02;;;;;;;12.13;11.17;;;19.10;99.90;;;;;;4898769;29;20501;-79
2021/09/16 01:35:29;;;;;;;13.97;12.63;;;18.90;99.90;;;;;;4900212;29;20447;-80
2021/09/16 01:37:58;;;;;;;13.17;9.10;;;19.10;99.90;;;;;;4900078;29;20423;-83
2021/09/16 01:40:26;;;;;;;6.47;5.13;;;18.90;99.90;;;;;;4899062;29;20438;-79
2021/09/16 01:42:53;;;;;;;16.70;15.23;;;18.50;99.90;;;;;;4897094;29;20441;-79
2021/09/16 01:45:24;;;;;;;11.20;7.53;;;18.40;99.90;;;;;;4896650;29;20442;-85
2021/09/16 01:47:52;;;;;;;23.23;21.53;;;18.60;99.90;;;;;;4913723;29;20443;-80
2021/09/16 01:50:22;;;;;;;12.70;11.53;;;19.00;99.90;;;;;;4901812;29;20956;-84
2021/09/16 01:52:50;;;;;;;15.43;13.20;;;19.20;99.90;;;;;;4895237;29;20566;-82
2021/09/16 01:55:18;;;;;;;13.23;10.43;;;19.00;99.90;;;;;;4896450;29;20435;-85
2021/09/16 01:57:46;;;;;;;11.27;10.07;;;19.30;99.90;;;;;;4903336;29;20522;-83
2021/09/16 02:00:14;;;;;;;10.00;8.33;;;19.60;99.90;;;;;;4904898;29;20424;-85
2021/09/16 02:02:42;;;;;;;14.60;13.27;;;19.70;99.90;;;;;;4897934;29;20564;-78
2021/09/16 02:05:10;;;;;;;10.47;9.23;;;19.70;99.90;;;;;;4909855;29;20424;-81
2021/09/16 02:07:38;;;;;;;7.63;6.97;;;19.80;99.30;;;;;;4900213;29;20432;-78
2021/09/16 02:10:07;;;;;;;8.67;6.83;;;19.60;99.90;;;;;;4902025;29;20462;-86
2021/09/16 02:12:34;;;;;;;10.83;9.97;;;19.70;99.90;;;;;;4914325;29;20633;-84
2021/09/16 02:15:02;;;;;;;7.47;6.77;;;19.70;99.50;;;;;;4908539;29;20937;-77
2021/09/16 02:17:29;;;;;;;12.87;11.90;;;19.80;99.90;;;;;;4900009;29;20401;-83
2021/09/16 02:19:57;;;;;;;22.17;20.30;;;19.80;99.50;;;;;;4899066;29;20694;-84
2021/09/16 02:22:24;;;;;;;8.60;7.80;;;20.10;98.30;;;;;;4899658;29;20420;-78
2021/09/16 02:24:51;;;;;;;7.43;6.80;;;20.20;98.50;;;;;;4900406;29;20435;-75
2021/09/16 02:27:19;;;;;;;11.03;10.17;;;20.20;98.50;;;;;;4910477;29;20921;-75
2021/09/16 02:29:46;;;;;;;21.07;19.47;;;20.20;98.40;;;;;;4908442;29;20428;-79
2021/09/16 02:32:14;;;;;;;12.60;11.60;;;20.10;97.80;;;;;;4900535;29;20471;-77
2021/09/16 02:34:41;;;;;;;16.17;14.67;;;20.20;98.40;;;;;;4905083;29;20602;-81
2021/09/16 02:37:09;;;;;;;12.40;11.30;;;20.80;97.20;;;;;;4901336;29;20448;-78
2021/09/16 02:39:37;;;;;;;9.27;8.03;;;20.40;96.90;;;;;;4901806;29;20912;-79
2021/09/16 02:42:04;;;;;;;14.07;12.60;;;20.30;96.70;;;;;;4900645;29;20455;-81
2021/09/16 02:44:32;;;;;;;12.13;11.27;;;20.10;97.00;;;;;;4898627;29;20450;-80
2021/09/16 02:46:59;;;;;;;17.53;15.97;;;21.00;96.40;;;;;;4898282;29;20438;-78
2021/09/16 02:49:26;;;;;;;13.13;12.10;;;21.10;95.60;;;;;;4900670;29;20439;-75
2021/09/16 02:51:54;;;;;;;12.87;11.27;;;21.10;95.40;;;;;;4898884;29;20483;-78
2021/09/16 02:54:21;;;;;;;39.07;33.83;;;21.10;96.50;;;;;;4896834;29;20958;-79
2021/09/16 02:56:49;;;;;;;8.70;7.97;;;21.10;96.80;;;;;;4898656;29;20930;-81
2021/09/16 02:59:17;;;;;;;12.93;11.87;;;20.80;97.40;;;;;;4898249;29;20431;-75
2021/09/16 03:01:44;;;;;;;9.40;8.63;;;20.70;97.60;;;;;;4898635;29;20448;-77
2021/09/16 03:04:12;;;;;;;9.93;9.07;;;21.10;97.30;;;;;;4899297;29;20489;-71
2021/09/16 03:06:39;;;;;;;12.53;9.07;;;21.30;96.10;;;;;;4906818;29;20423;-71
2021/09/16 03:09:06;;;;;;;9.20;8.27;;;21.40;95.80;;;;;;4897820;29;20478;-81
2021/09/16 03:11:34;;;;;;;12.13;10.93;;;21.50;96.20;;;;;;4894653;29;20480;-74
2021/09/16 03:14:01;;;;;;;27.90;25.03;;;21.60;96.20;;;;;;4895588;29;20449;-72
2021/09/16 03:16:29;;;;;;;12.43;11.33;;;21.50;96.10;;;;;;4897252;29;20860;-72
2021/09/16 03:18:56;;;;;;;8.87;8.17;;;21.80;95.50;;;;;;4901590;29;20436;-71
2021/09/16 03:21:23;;;;;;;8.40;7.80;;;22.30;94.10;;;;;;4903140;29;20835;-84
2021/09/16 03:23:51;;;;;;;20.93;19.33;;;22.50;94.40;;;;;;4907081;29;20520;-72
2021/09/16 03:26:18;;;;;;;11.83;10.83;;;22.90;93.40;;;;;;4897558;29;20542;-73
2021/09/16 03:28:45;;;;;;;19.53;18.20;;;23.00;93.10;;;;;;4895556;29;20453;-71
2021/09/16 03:31:13;;;;;;;13.27;12.37;;;22.80;93.00;;;;;;4896390;29;20448;-68
2021/09/16 03:33:40;;;;;;;8.90;8.23;;;22.50;93.10;;;;;;4897022;29;20480;-70
2021/09/16 03:36:07;;;;;;;16.23;15.03;;;22.70;92.10;;;;;;4909586;29;20443;-72
2021/09/16 03:38:35;;;;;;;13.13;12.23;;;23.20;92.10;;;;;;4910090;29;20432;-67
2021/09/16 03:41:03;;;;;;;13.40;12.33;;;23.20;91.40;;;;;;4901138;29;20829;-67
2021/09/16 03:43:30;;;;;;;8.43;7.83;;;23.10;90.80;;;;;;4898793;29;20443;-67
2021/09/16 03:45:58;;;;;;;5.63;5.23;;;22.90;91.20;;;;;;4899438;29;20796;-68
2021/09/16 03:48:25;;;;;;;5.33;4.80;;;23.00;91.20;;;;;;4897618;29;20959;-68
2021/09/16 03:50:53;;;;;;;8.67;7.67;;;22.80;90.90;;;;;;4904454;29;20594;-68
2021/09/16 03:53:20;;;;;;;8.17;6.43;;;22.90;90.90;;;;;;4897824;29;20235;-71
2021/09/16 03:55:47;;;;;;;13.43;12.17;;;23.00;91.40;;;;;;4899614;29;20263;-66
2021/09/16 03:58:15;;;;;;;26.47;9.80;;;22.60;91.80;;;;;;4898669;29;20738;-71
2021/09/16 04:00:42;;;;;;;14.37;10.07;;;22.90;91.80;;;;;;4898395;29;20655;-75
2021/09/16 04:03:11;;;;;;;11.07;10.30;;;22.90;92.40;;;;;;4902854;29;20436;-70
2021/09/16 04:05:41;;;;;;;9.87;9.17;;;22.80;92.40;;;;;;4909938;29;20435;-69
2021/09/16 04:08:09;;;;;;;24.80;18.87;;;23.20;92.20;;;;;;4899231;29;20446;-70
2021/09/16 04:10:37;;;;;;;5.40;4.90;;;23.20;91.50;;;;;;4903442;29;20549;-69
2021/09/16 04:13:06;;;;;;;4.53;4.23;;;22.40;91.30;;;;;;4900496;29;20300;-72
2021/09/16 04:15:34;;;;;;;5.93;5.53;;;22.20;91.70;;;;;;4900459;29;20431;-72
2021/09/16 04:18:01;;;;;;;14.70;12.87;;;22.40;91.10;;;;;;4899248;29;20956;-81
2021/09/16 04:20:29;;;;;;;14.80;13.63;;;22.50;90.40;;;;;;4901364;29;20197;-76
2021/09/16 04:22:56;;;;;;;11.80;10.77;;;22.30;90.80;;;;;;4900638;29;20436;-68
2021/09/16 04:25:24;;;;;;;9.73;9.07;;;23.00;90.70;;;;;;4914447;29;20432;-73
2021/09/16 04:27:51;;;;;;;19.30;17.93;;;23.40;90.40;;;;;;4899832;29;20189;-72
2021/09/16 04:30:18;;;;;;;20.77;5.83;;;23.70;89.50;;;;;;4899834;29;20193;-73
2021/09/16 04:32:46;;;;;;;13.00;12.10;;;23.20;90.20;;;;;;4901596;29;20514;-76
2021/09/16 04:35:13;;;;;;;7.17;6.73;;;22.40;91.90;;;;;;4902358;29;20226;-81
2021/09/16 04:37:40;;;;;;;7.63;7.17;;;22.20;92.60;;;;;;4901645;29;20429;-73
2021/09/16 04:40:08;;;;;;;12.23;11.47;;;22.30;93.00;;;;;;4899961;29;20424;-70
2021/09/16 04:42:35;;;;;;;9.40;8.73;;;21.30;94.60;;;;;;4900489;29;20427;-72
2021/09/16 04:45:03;;;;;;;10.07;9.23;;;20.30;96.00;;;;;;4900108;29;20416;-67
2021/09/16 04:47:31;;;;;;;5.63;5.13;;;19.60;97.80;;;;;;4903870;29;20436;-67
2021/09/16 04:49:58;;;;;;;12.17;11.03;;;18.70;99.90;;;;;;4912886;29;20416;-72
2021/09/16 04:52:27;;;;;;;11.83;10.70;;;18.90;99.90;;;;;;4898724;29;20535;-72
2021/09/16 04:54:54;;;;;;;11.23;10.13;;;18.70;99.90;;;;;;4886334;29;20447;-79
2021/09/16 04:57:22;;;;;;;16.40;15.33;;;18.70;99.90;;;;;;4893293;29;20428;-85
2021/09/16 04:59:49;;;;;;;15.67;14.43;;;19.80;98.60;;;;;;4900236;29;20435;-80
2021/09/16 05:02:16;;;;;;;9.77;8.90;;;20.90;96.60;;;;;;4898755;29;20425;-70
2021/09/16 05:04:44;;;;;;;13.63;12.57;;;21.70;95.40;;;;;;4899409;29;20434;-78
2021/09/16 05:07:11;;;;;;;8.43;7.70;;;22.20;94.60;;;;;;4900924;29;20779;-67
2021/09/16 05:09:38;;;;;;;12.87;11.80;;;23.10;92.80;;;;;;4899277;29;20416;-74
2021/09/16 05:12:06;;;;;;;7.10;6.50;;;22.70;92.00;;;;;;4897510;29;20994;-67
2021/09/16 05:14:33;;;;;;;9.33;7.80;;;22.10;92.90;;;;;;4900900;29;20438;-73
2021/09/16 05:17:01;;;;;;;8.60;5.93;;;22.80;92.40;;;;;;4904356;29;20196;-66
2021/09/16 05:19:30;;;;;;;10.37;9.73;;;22.90;91.70;;;;;;4899067;29;20554;-67
2021/09/16 05:21:58;;;;;;;7.80;7.20;;;23.20;92.30;;;;;;4902886;29;20435;-78
2021/09/16 05:24:25;;;;;;;5.57;5.00;;;23.40;90.20;;;;;;4910006;29;20195;-69
2021/09/16 05:26:53;;;;;;;27.37;24.77;;;23.80;90.30;;;;;;4913741;29;20186;-73
2021/09/16 05:29:20;;;;;;;13.30;11.13;;;23.70;88.60;;;;;;4899717;29;20985;-72
2021/09/16 05:31:47;;;;;;;17.00;15.30;;;23.20;90.40;;;;;;4900791;29;20216;-67
2021/09/16 05:34:16;;;;;;;14.63;6.90;;;23.20;90.70;;;;;;4898946;29;20186;-69
2021/09/16 05:36:43;;;;;;;10.40;7.07;;;22.80;88.00;;;;;;4901322;29;20219;-72
2021/09/16 05:39:11;;;;;;;6.97;5.50;;;23.00;89.40;;;;;;4906539;29;20209;-71
2021/09/16 05:41:38;;;;;;;7.90;5.30;;;22.90;90.00;;;;;;4911368;29;20181;-68
2021/09/16 05:44:06;;;;;;;7.30;6.63;;;22.70;90.60;;;;;;4898966;29;20339;-69
2021/09/16 05:46:34;;;;;;;9.33;7.97;;;22.80;90.70;;;;;;4900835;29;20208;-81
2021/09/16 05:49:02;;;;;;;11.23;10.03;;;22.50;90.50;;;;;;4899631;29;20185;-76
2021/09/16 05:51:29;;;;;;;7.50;6.93;;;22.20;90.00;;;;;;4899408;29;20215;-81
2021/09/16 05:53:57;;;;;;;7.60;7.13;;;21.90;90.40;;;;;;4905796;29;21111;-75
2021/09/16 05:56:24;;;;;;;4.33;4.03;;;21.20;91.70;;;;;;4901332;29;20467;-81
2021/09/16 05:58:51;;;;;;;9.80;6.90;;;22.20;90.70;;;;;;4898853;29;20212;-78
2021/09/16 06:01:19;;;;;;;9.67;8.77;;;22.70;90.50;;;;;;4896281;29;20534;-79
2021/09/16 06:03:46;;;;;;;6.70;6.30;;;22.90;89.90;;;;;;4902505;29;20192;-82
2021/09/16 06:06:13;;;;;;;9.43;6.03;;;23.30;89.70;;;;;;4899744;29;20439;-79
2021/09/16 06:08:42;;;;;;;16.03;14.70;;;22.20;90.20;;;;;;4903537;29;20185;-84
2021/09/16 06:11:10;;;;;;;9.83;9.10;;;22.40;90.70;;;;;;4898034;29;20608;-80
2021/09/16 06:17:00;;;;;;;17.17;15.77;;;23.50;89.50;;;;;;4897454;29;20236;-82
2021/09/16 06:19:27;;;;;;;8.80;7.90;;;22.30;90.40;;;;;;4902984;29;20181;-80
2021/09/16 06:21:55;;;;;;;12.43;11.40;;;22.50;90.50;;;;;;4900862;29;20782;-80
2021/09/16 06:24:23;;;;;;;8.00;5.57;;;22.90;90.10;;;;;;4898310;29;20432;-81
2021/09/16 06:26:50;;;;;;;8.83;6.07;;;22.30;88.10;;;;;;4905619;29;20182;-81
2021/09/16 06:29:17;;;;;;;5.83;5.27;;;21.80;90.70;;;;;;4897814;29;20194;-81
2021/09/16 06:31:45;;;;;;;6.97;6.50;;;22.30;90.50;;;;;;4896939;29;20460;-81
2021/09/16 06:34:12;;;;;;;8.60;8.03;;;21.30;91.70;;;;;;4896591;29;20443;-72
2021/09/16 06:36:39;;;;;;;6.00;5.43;;;21.20;92.10;;;;;;4897891;29;20499;-81
2021/09/16 06:39:07;;;;;;;5.83;5.27;;;20.50;92.70;;;;;;4902537;29;20431;-71
2021/09/16 06:41:34;;;;;;;6.50;5.93;;;20.70;93.30;;;;;;4901492;29;20448;-78
2021/09/16 06:44:02;;;;;;;7.57;6.93;;;20.90;93.30;;;;;;4898402;29;20428;-66
2021/09/16 06:46:31;;;;;;;29.80;27.77;;;21.50;92.70;;;;;;4897721;29;20941;-69
2021/09/16 06:48:58;;;;;;;18.50;17.23;;;21.10;92.80;;;;;;4899443;29;20491;-79
2021/09/16 06:51:26;;;;;;;23.80;22.13;;;20.50;93.90;;;;;;4904901;29;20991;-79
2021/09/16 06:53:54;;;;;;;39.60;36.57;;;20.60;93.60;;;;;;4893857;29;20440;-81
2021/09/16 06:56:22;;;;;;;33.47;31.33;;;20.10;93.50;;;;;;4897010;29;20420;-77
2021/09/16 06:58:49;;;;;;;10.50;9.57;;;19.90;93.40;;;;;;4896231;29;20930;-78
2021/09/16 07:01:17;;;;;;;6.83;6.17;;;19.40;94.80;;;;;;4896748;29;20440;-77
2021/09/16 07:03:47;;;;;;;11.10;10.23;;;18.90;94.60;;;;;;4897324;29;20507;-80
2021/09/16 07:06:14;;;;;;;9.40;8.57;;;18.70;95.80;;;;;;4898419;29;20922;-80
2021/09/16 07:08:42;;;;;;;27.87;25.70;;;18.10;95.40;;;;;;4887057;29;20519;-76
2021/09/16 07:11:09;;;;;;;13.93;12.77;;;17.60;96.90;;;;;;4896859;29;20527;-79
2021/09/16 07:13:37;;;;;;;24.20;22.27;;;17.20;99.10;;;;;;4898781;29;20483;-76
2021/09/16 07:16:04;;;;;;;10.73;9.90;;;17.00;99.90;;;;;;4896057;29;20505;-79
2021/09/16 07:18:34;;;;;;;7.43;6.63;;;17.00;99.90;;;;;;4889146;29;20446;-79
2021/09/16 07:21:02;;;;;;;8.30;7.53;;;17.00;99.90;;;;;;4898285;29;20432;-76
2021/09/16 07:23:30;;;;;;;9.73;8.87;;;16.90;99.90;;;;;;4899716;29;20443;-74
2021/09/16 07:25:58;;;;;;;9.87;9.00;;;16.70;99.90;;;;;;4903150;29;20445;-75
2021/09/16 07:28:25;;;;;;;7.43;6.53;;;16.70;99.90;;;;;;4906793;29;20440;-81
2021/09/16 07:30:52;;;;;;;7.60;6.83;;;16.40;99.90;;;;;;4898119;29;20996;-77
2021/09/16 07:33:20;;;;;;;8.97;8.10;;;16.30;99.90;;;;;;4900539;29;20568;-80
2021/09/16 07:35:47;;;;;;;10.87;9.87;;;16.20;99.90;;;;;;4904709;29;20495;-80
2021/09/16 07:38:14;;;;;;;8.40;7.63;;;16.10;99.90;;;;;;4903044;29;20940;-78
2021/09/16 07:40:42;;;;;;;6.80;6.10;;;16.20;99.90;;;;;;4908768;29;20435;-80
2021/09/16 07:43:09;;;;;;;8.00;7.23;;;16.10;99.90;;;;;;4882243;29;20420;-79
2021/09/16 07:45:37;;;;;;;7.40;6.67;;;16.00;99.90;;;;;;4894951;29;20502;-79
2021/09/16 07:48:05;;;;;;;7.83;7.07;;;15.90;99.90;;;;;;4900801;29;20874;-79
2021/09/16 07:50:32;;;;;;;7.07;6.37;;;15.80;99.90;;;;;;4900449;29;20515;-82
2021/09/16 07:52:59;;;;;;;10.00;9.13;;;15.80;99.90;;;;;;4897789;29;20473;-79
2021/09/16 07:55:27;;;;;;;7.70;6.93;;;15.80;99.90;;;;;;4906384;29;20427;-76
2021/09/16 07:57:54;;;;;;;7.43;6.70;;;15.70;99.90;;;;;;4901635;29;20783;-74
2021/09/16 08:00:22;;;;;;;7.00;6.20;;;15.60;99.90;;;;;;4900668;29;20829;-79
2021/09/16 08:02:52;;;;;;;6.10;4.87;;;15.60;99.90;;;;;;4901191;29;20432;-81
2021/09/16 08:05:20;;;;;;;6.40;5.30;;;15.60;99.90;;;;;;4906804;29;20861;-80
2021/09/16 08:07:47;;;;;;;9.40;8.57;;;15.60;99.90;;;;;;4905165;29;20432;-79
2021/09/16 08:10:15;;;;;;;6.93;6.17;;;15.50;99.90;;;;;;4900069;29;20456;-80
2021/09/16 08:12:42;;;;;;;8.20;7.40;;;15.50;99.90;;;;;;4908857;29;20479;-81
2021/09/16 08:15:10;;;;;;;6.63;5.43;;;15.40;99.90;;;;;;4914105;29;20818;-80
2021/09/16 08:17:38;;;;;;;6.47;4.67;;;15.40;99.90;;;;;;4901496;29;20432;-78
2021/09/16 08:20:08;;;;;;;7.87;6.40;;;15.30;99.90;;;;;;4911042;29;20447;-78
2021/09/16 08:22:36;;;;;;;7.87;6.17;;;15.20;99.90;;;;;;4900088;29;20482;-80
2021/09/16 08:25:05;;;;;;;11.60;10.53;;;15.30;99.90;;;;;;4898819;29;20460;-80
2021/09/16 08:27:35;;;;;;;6.83;5.23;;;15.20;99.90;;;;;;4896818;29;20920;-80
2021/09/16 08:30:03;;;;;;;7.07;6.30;;;15.30;99.90;;;;;;4886078;29;20495;-80
2021/09/16 08:32:31;;;;;;;6.60;5.07;;;15.20;99.90;;;;;;4899347;29;20558;-77
2021/09/16 08:34:58;;;;;;;7.57;5.50;;;15.10;99.90;;;;;;4900024;29;20767;-80
2021/09/16 08:37:26;;;;;;;8.13;6.83;;;15.20;99.90;;;;;;4898536;29;20944;-76
2021/09/16 08:39:53;;;;;;;8.67;7.53;;;15.20;99.90;;;;;;4899209;29;20431;-81
2021/09/16 08:42:25;;;;;;;7.47;5.67;;;15.20;99.90;;;;;;4903819;29;20426;-80
2021/09/16 08:44:54;;;;;;;7.80;6.63;;;15.20;99.90;;;;;;4898996;29;20444;-80
2021/09/16 08:47:24;;;;;;;7.13;5.17;;;15.20;99.90;;;;;;4900745;29;20435;-80
2021/09/16 08:49:54;;;;;;;9.13;8.00;;;15.20;99.90;;;;;;4910950;29;20498;-77
2021/09/16 08:52:23;;;;;;;8.17;7.27;;;15.30;99.90;;;;;;4904637;29;20854;-78
2021/09/16 08:54:52;;;;;;;7.17;6.40;;;15.20;99.90;;;;;;4906580;29;20436;-80
2021/09/16 08:57:20;;;;;;;7.60;6.33;;;15.20;99.90;;;;;;4901055;29;21006;-81
2021/09/16 08:59:47;;;;;;;10.67;9.70;;;15.30;99.90;;;;;;4900871;29;20866;-78
2021/09/16 09:02:14;;;;;;;8.47;7.33;;;15.20;99.90;;;;;;4902329;29;20812;-79
2021/09/16 09:04:42;;;;;;;7.27;6.53;;;15.30;99.90;;;;;;4898928;29;20425;-80
2021/09/16 09:07:12;;;;;;;7.30;6.57;;;15.20;99.90;;;;;;4912402;29;20439;-81
2021/09/16 09:09:44;;;;;;;7.17;6.47;;;15.20;99.90;;;;;;4918392;29;20412;-76
2021/09/16 09:12:14;;;;;;;8.17;7.40;;;15.20;99.90;;;;;;4910354;29;20993;-71
2021/09/16 09:14:45;;;;;;;6.90;6.20;;;15.10;99.90;;;;;;4898877;29;20518;-73
2021/09/16 09:17:20;;;;;;;7.60;6.87;;;15.10;99.90;;;;;;4897338;29;20944;-76
2021/09/16 09:19:49;;;;;;;8.97;8.17;;;15.00;99.90;;;;;;4897834;29;20915;-77
2021/09/16 09:22:17;;;;;;;7.40;6.70;;;15.00;99.90;;;;;;4899114;29;20418;-79
2021/09/16 09:24:47;;;;;;;7.07;6.40;;;15.00;99.90;;;;;;4897325;29;20452;-80
2021/09/16 09:27:33;;;;;;;9.03;8.20;;;14.90;99.90;;;;;;4900722;29;20438;-72
2021/09/16 09:30:16;;;;;;;9.80;8.97;;;14.90;99.90;;;;;;4898339;29;20431;-74
2021/09/16 09:33:09;;;;;;;7.77;7.03;;;14.80;99.90;;;;;;4898870;29;21011;-79
2021/09/16 09:35:42;;;;;;;8.33;7.60;;;14.80;99.90;;;;;;4897143;29;20445;-74
2021/09/16 09:38:25;;;;;;;8.07;7.27;;;14.80;99.90;;;;;;4899267;29;20808;-79
2021/09/16 09:40:58;;;;;;;8.53;7.70;;;14.70;99.90;;;;;;4901500;29;20930;-76
2021/09/16 09:43:36;;;;;;;7.83;7.10;;;14.70;99.90;;;;;;4903484;29;20433;-80
2021/09/16 09:46:11;;;;;;;8.80;8.03;;;14.70;99.90;;;;;;4899626;29;20441;-76
2021/09/16 09:48:45;;;;;;;7.27;6.57;;;14.60;99.90;;;;;;4898236;29;20937;-75
2021/09/16 09:51:14;;;;;;;8.00;7.27;;;14.60;99.90;;;;;;4906582;29;20440;-77
2021/09/16 09:53:44;;;;;;;8.63;7.87;;;14.60;99.90;;;;;;4903456;29;20483;-76
2021/09/16 09:56:18;;;;;;;7.63;6.90;;;14.60;99.90;;;;;;4897024;29;20451;-74
2021/09/16 09:58:46;;;;;;;7.33;6.63;;;14.60;99.90;;;;;;4912116;29;20538;-76
2021/09/16 10:01:27;;;;;;;6.93;6.27;;;14.60;99.90;;;;;;4901968;29;20483;-71
2021/09/16 10:03:54;;;;;;;8.73;7.97;;;14.60;99.90;;;;;;4903176;29;20517;-72
2021/09/16 10:06:22;;;;;;;7.47;6.77;;;14.70;99.90;;;;;;4885297;29;20430;-69
2021/09/16 10:09:10;;;;;;;11.27;10.30;;;14.70;99.90;;;;;;4898125;29;20441;-72
2021/09/16 10:11:49;;;;;;;7.97;6.70;;;14.70;99.90;;;;;;4909875;29;20538;-66
2021/09/16 10:14:18;;;;;;;9.30;8.50;;;14.70;99.90;;;;;;4898487;29;20783;-71
2021/09/16 10:16:47;;;;;;;7.50;6.80;;;14.70;99.90;;;;;;4897961;29;20428;-75
2021/09/16 10:19:15;;;;;;;7.50;6.80;;;14.80;99.90;;;;;;4898834;29;20459;-70
2021/09/16 10:21:43;;;;;;;20.20;18.67;;;14.80;99.90;;;;;;4906760;29;20435;-79
2021/09/16 10:24:16;;;;;;;10.27;9.40;;;14.80;99.90;;;;;;4902995;29;20439;-76
2021/09/16 10:26:51;;;;;;;7.47;6.77;;;14.80;99.90;;;;;;4903467;29;20484;-67
2021/09/16 10:29:30;;;;;;;6.97;6.30;;;14.80;99.90;;;;;;4900879;29;20428;-65
2021/09/16 10:32:07;;;;;;;6.83;6.20;;;14.80;99.90;;;;;;4905038;29;21391;-70
2021/09/16 10:34:46;;;;;;;5.60;4.83;;;14.70;99.90;;;;;;4899645;29;20429;-76
2021/09/16 10:37:16;;;;;;;6.00;5.37;;;14.70;99.90;;;;;;4900051;29;20450;-68
2021/09/16 10:39:45;;;;;;;11.40;10.50;;;14.70;99.90;;;;;;4899590;29;20522;-66
2021/09/16 10:42:14;;;;;;;7.33;6.67;;;14.80;99.90;;;;;;4904832;29;20843;-76
2021/09/16 10:44:43;;;;;;;5.17;4.27;;;14.80;99.90;;;;;;4906896;29;20432;-73
2021/09/16 10:47:23;;;;;;;6.10;5.47;;;14.80;99.90;;;;;;4899907;29;20425;-71
2021/09/16 10:49:51;;;;;;;6.47;5.83;;;14.80;99.90;;;;;;4902885;29;20428;-77
2021/09/16 10:52:23;;;;;;;6.63;6.00;;;14.70;99.90;;;;;;4902250;29;20511;-65
2021/09/16 10:54:55;;;;;;;6.83;6.20;;;14.80;99.90;;;;;;4900644;29;20566;-70
2021/09/16 10:57:40;;;;;;;6.17;5.53;;;14.90;99.90;;;;;;4901692;29;20432;-66
2021/09/16 11:00:16;;;;;;;21.47;11.70;;;14.90;99.90;;;;;;4899110;29;20456;-66
2021/09/16 11:02:45;;;;;;;7.23;6.53;;;14.80;99.90;;;;;;4906726;29;20526;-66
2021/09/16 11:05:17;;;;;;;7.53;6.83;;;14.80;99.90;;;;;;4905666;29;20491;-66
2021/09/16 11:07:52;;;;;;;15.70;14.47;;;14.80;99.90;;;;;;4904636;29;20457;-79
2021/09/16 11:10:24;;;;;;;7.87;7.13;;;14.80;99.90;;;;;;4903636;29;20475;-68
2021/09/16 11:13:06;;;;;;;7.30;6.53;;;14.70;99.90;;;;;;4907313;29;20526;-69
2021/09/16 11:15:40;;;;;;;5.83;5.13;;;14.70;99.90;;;;;;4897815;29;20440;-67
2021/09/16 11:18:18;;;;;;;8.70;7.80;;;14.70;99.90;;;;;;4903811;29;20427;-76
2021/09/16 11:20:47;;;;;;;72.77;63.47;;;14.60;99.90;;;;;;4903527;29;20433;-75
2021/09/16 11:23:18;;;;;;;7.47;6.60;;;14.50;99.90;;;;;;4908161;29;20454;-78
2021/09/16 11:25:52;;;;;;;25.60;22.87;;;14.50;99.90;;;;;;4902899;29;20432;-72
2021/09/16 11:28:19;;;;;;;8.83;8.07;;;14.50;99.90;;;;;;4895522;29;20434;-82
2021/09/16 11:30:48;;;;;;;8.67;7.87;;;14.40;99.90;;;;;;4903990;29;20930;-83
2021/09/16 11:33:18;;;;;;;7.97;7.20;;;14.40;99.90;;;;;;4903525;29;20823;-78
2021/09/16 11:35:50;;;;;;;9.50;8.63;;;14.40;99.90;;;;;;4907959;29;20428;-80
2021/09/16 11:38:17;;;;;;;9.33;8.50;;;14.30;99.90;;;;;;4903118;29;20516;-78
2021/09/16 11:40:47;;;;;;;6.80;6.03;;;14.30;99.90;;;;;;4907653;29;20929;-75
2021/09/16 11:43:17;;;;;;;8.83;8.07;;;14.20;99.90;;;;;;4904300;29;20438;-76
2021/09/16 11:45:47;;;;;;;9.03;8.27;;;14.10;99.90;;;;;;4913666;29;20434;-77
2021/09/16 11:48:20;;;;;;;6.83;6.07;;;14.00;99.90;;;;;;4903612;29;20420;-75
2021/09/16 11:51:02;;;;;;;10.17;9.33;;;14.00;99.90;;;;;;4903157;29;20441;-80
2021/09/16 11:53:34;;;;;;;10.57;9.67;;;14.00;99.90;;;;;;4906587;29;20515;-80
2021/09/16 11:56:07;;;;;;;8.90;8.13;;;13.90;99.90;;;;;;4902735;29;20511;-71
2021/09/16 11:58:40;;;;;;;6.07;5.33;;;13.90;99.90;;;;;;4898795;29;20445;-74
2021/09/16 12:01:14;;;;;;;5.80;5.10;;;13.80;99.90;;;;;;4904190;29;20423;-77
2021/09/16 12:03:50;;;;;;;6.80;6.07;;;13.90;99.90;;;;;;4902870;29;20937;-78
2021/09/16 12:06:18;;;;;;;7.60;6.67;;;13.90;99.90;;;;;;4905499;29;20436;-81
2021/09/16 12:08:46;;;;;;;10.37;9.33;;;13.90;99.90;;;;;;4903351;29;20443;-70
2021/09/16 12:11:17;;;;;;;5.97;5.33;;;13.90;99.90;;;;;;4908168;29;20467;-71
2021/09/16 12:13:57;;;;;;;11.67;10.50;;;13.90;99.90;;;;;;4902200;29;20513;-66
2021/09/16 12:16:30;;;;;;;7.77;5.90;;;13.90;99.90;;;;;;4913507;29;20425;-73
2021/09/16 12:18:58;;;;;;;26.33;20.33;;;13.90;99.90;;;;;;4903017;29;20424;-67
2021/09/16 12:21:32;;;;;;;9.47;8.10;;;14.00;99.90;;;;;;4906635;29;20431;-82
2021/09/16 12:24:05;;;;;;;18.33;16.53;;;14.00;99.90;;;;;;4890147;29;20507;-79
2021/09/16 12:26:41;;;;;;;8.83;7.13;;;14.00;99.90;;;;;;4903027;29;20905;-82
2021/09/16 12:29:13;;;;;;;10.07;9.00;;;14.00;99.90;;;;;;4891438;29;20859;-79
2021/09/16 12:31:42;;;;;;;7.30;6.53;;;14.00;99.90;;;;;;4904114;29;20439;-81
2021/09/16 12:34:17;;;;;;;7.50;6.57;;;14.00;99.90;;;;;;4889147;29;20460;-82
2021/09/16 12:37:02;;;;;;;7.47;5.40;;;13.90;99.90;;;;;;4900681;29;20415;-82
2021/09/16 12:39:45;;;;;;;7.70;5.83;;;13.90;99.90;;;;;;4900050;29;20420;-82
2021/09/16 12:42:15;;;;;;;8.07;6.67;;;14.00;99.90;;;;;;4898044;29;20934;-81
2021/09/16 12:44:44;;;;;;;14.10;12.63;;;13.90;99.90;;;;;;4898282;29;20440;-82
2021/09/16 12:47:16;;;;;;;6.93;6.27;;;13.90;99.90;;;;;;4886990;29;20428;-76
2021/09/16 12:49:48;;;;;;;7.17;6.50;;;13.80;99.90;;;;;;4899447;29;20472;-79
2021/09/16 12:52:24;;;;;;;5.97;5.27;;;13.80;99.90;;;;;;4900045;29;20456;-82
2021/09/16 12:55:02;;;;;;;5.87;5.13;;;13.80;99.90;;;;;;4893494;29;20458;-83